Time;durP1;ratioP1;P1;durP2;ratioP2;P2;SDS_P1;SDS_P2;PMS_P1;PMS_P2;Temp;Humidity;BMP_temperature;BMP_pressure;BME280_temperature;BME280_humidity;BME280_pressure;Samples;Min_cycle;Max_cycle;Signal;HPM_P1;HPM_P2
2021/07/11 00:02:06;;;;;;;8.30;7.60;;;20.00;99.90;;;;;;5051917;28;20702;-50
2021/07/11 00:04:34;;;;;;;9.30;8.27;;;20.00;99.90;;;;;;5051886;28;20689;-51
2021/07/11 00:07:01;;;;;;;8.17;7.37;;;20.00;99.90;;;;;;5070438;28;20689;-50
2021/07/11 00:09:28;;;;;;;8.83;8.13;;;20.00;99.90;;;;;;5072204;28;20661;-50
2021/07/11 00:11:57;;;;;;;9.80;8.10;;;20.00;99.90;;;;;;5071768;28;20609;-51
2021/07/11 00:14:24;;;;;;;8.50;7.90;;;19.90;99.90;;;;;;5065008;28;20646;-50
2021/07/11 00:16:51;;;;;;;8.37;7.67;;;19.80;99.90;;;;;;5051009;28;20694;-49
2021/07/11 00:19:18;;;;;;;10.93;8.90;;;19.90;99.90;;;;;;5051346;28;20711;-50
2021/07/11 00:21:45;;;;;;;7.20;6.60;;;19.80;99.90;;;;;;5051704;28;20682;-50
2021/07/11 00:24:12;;;;;;;9.30;7.70;;;19.80;99.90;;;;;;5051530;28;21277;-50
2021/07/11 00:26:40;;;;;;;7.20;6.60;;;19.70;99.90;;;;;;5065441;28;20708;-50
2021/07/11 00:29:08;;;;;;;6.63;6.13;;;19.70;99.90;;;;;;5070660;28;20661;-50
2021/07/11 00:31:35;;;;;;;7.60;7.00;;;19.70;99.90;;;;;;5059391;28;20662;-51
2021/07/11 00:34:03;;;;;;;6.57;6.07;;;19.70;99.90;;;;;;5052382;28;20634;-50
2021/07/11 00:36:30;;;;;;;7.07;5.90;;;19.70;99.90;;;;;;5050665;28;20657;-50
2021/07/11 00:38:57;;;;;;;6.20;5.60;;;19.70;99.90;;;;;;5051159;28;20666;-49
2021/07/11 00:41:24;;;;;;;6.57;5.67;;;19.70;99.90;;;;;;5050858;28;20672;-50
2021/07/11 00:43:51;;;;;;;5.90;5.50;;;19.70;99.90;;;;;;5058707;28;20686;-50
2021/07/11 00:46:20;;;;;;;5.97;5.40;;;19.70;99.90;;;;;;5064373;28;20676;-50
2021/07/11 00:48:47;;;;;;;6.03;5.63;;;19.70;99.90;;;;;;5059400;28;20637;-50
2021/07/11 00:51:14;;;;;;;5.60;5.17;;;19.70;99.90;;;;;;5057035;28;21052;-50
2021/07/11 00:53:49;;;;;;;5.13;4.40;;;19.70;99.90;;;;;;5059983;28;20668;-49
2021/07/11 00:56:17;;;;;;;5.53;4.97;;;19.70;99.90;;;;;;5063696;28;20826;-50
2021/07/11 00:58:44;;;;;;;5.40;4.87;;;19.70;99.90;;;;;;5060368;28;20663;-49
2021/07/11 01:01:12;;;;;;;6.43;5.73;;;19.70;99.90;;;;;;5058232;28;20653;-49
2021/07/11 01:03:40;;;;;;;6.40;4.70;;;19.70;99.90;;;;;;5058786;28;20661;-50
2021/07/11 01:06:08;;;;;;;5.87;4.97;;;19.60;99.90;;;;;;5055105;28;20709;-49
2021/07/11 01:08:39;;;;;;;5.30;4.80;;;19.60;99.90;;;;;;5054999;28;20658;-50
2021/07/11 01:11:07;;;;;;;5.60;4.90;;;19.60;99.90;;;;;;5060420;28;20645;-49
2021/07/11 01:13:34;;;;;;;5.73;4.80;;;19.50;99.90;;;;;;5061143;28;21271;-50
2021/07/11 01:16:02;;;;;;;4.37;4.07;;;19.40;99.90;;;;;;5054679;28;20661;-50
2021/07/11 01:18:30;;;;;;;4.83;4.43;;;19.40;99.90;;;;;;5061386;28;20769;-49
2021/07/11 01:20:59;;;;;;;4.73;4.40;;;19.40;99.90;;;;;;5060313;28;21122;-50
2021/07/11 01:23:31;;;;;;;5.43;4.93;;;19.30;99.90;;;;;;5058131;28;20662;-49
2021/07/11 01:26:00;;;;;;;6.63;5.93;;;19.30;99.90;;;;;;5057539;28;21086;-49
2021/07/11 01:28:27;;;;;;;5.63;5.23;;;19.30;99.90;;;;;;5061366;28;20652;-49
2021/07/11 01:30:55;;;;;;;5.40;4.80;;;19.30;99.90;;;;;;5060422;28;20643;-49
2021/07/11 01:33:23;;;;;;;5.20;4.90;;;19.20;99.90;;;;;;5057539;28;20657;-49
2021/07/11 01:35:50;;;;;;;5.83;5.33;;;19.20;99.90;;;;;;5058157;28;20642;-48
2021/07/11 01:38:18;;;;;;;7.60;5.43;;;19.20;99.90;;;;;;5059612;28;20677;-50
2021/07/11 01:40:45;;;;;;;7.90;5.07;;;19.30;99.90;;;;;;5061033;28;21012;-49
2021/07/11 01:43:13;;;;;;;5.20;4.80;;;19.20;99.90;;;;;;5059960;28;20687;-49
2021/07/11 01:45:41;;;;;;;6.07;5.47;;;19.20;99.90;;;;;;5058032;28;20784;-50
2021/07/11 01:48:08;;;;;;;6.53;5.93;;;19.20;99.90;;;;;;5060138;28;20660;-48
2021/07/11 01:50:35;;;;;;;6.20;5.60;;;19.20;99.90;;;;;;5056608;28;20628;-49
2021/07/11 01:53:03;;;;;;;6.70;5.70;;;19.20;99.90;;;;;;5061676;28;20675;-49
2021/07/11 01:55:30;;;;;;;5.00;4.60;;;19.20;99.90;;;;;;5057991;28;20623;-49
2021/07/11 01:57:57;;;;;;;5.30;4.90;;;19.20;99.90;;;;;;5057687;28;20674;-50
2021/07/11 02:00:26;;;;;;;5.30;4.80;;;19.20;99.90;;;;;;5058579;28;20651;-49
2021/07/11 02:02:53;;;;;;;7.57;4.30;;;19.20;99.90;;;;;;5048099;28;21015;-49
2021/07/11 02:05:20;;;;;;;4.90;4.40;;;19.20;99.90;;;;;;5059591;28;20692;-48
2021/07/11 02:07:48;;;;;;;5.73;5.03;;;19.20;99.90;;;;;;5057542;28;21294;-49
2021/07/11 02:10:17;;;;;;;5.60;4.90;;;19.20;99.90;;;;;;5057290;28;20654;-48
2021/07/11 02:12:49;;;;;;;4.90;4.53;;;19.20;99.90;;;;;;5060838;28;21087;-50
2021/07/11 02:15:16;;;;;;;7.27;4.60;;;19.20;99.90;;;;;;5060794;28;20664;-49
2021/07/11 02:17:46;;;;;;;6.43;5.10;;;19.20;99.90;;;;;;5057577;28;21049;-49
2021/07/11 02:20:14;;;;;;;5.30;4.80;;;19.20;99.90;;;;;;5058498;28;20633;-49
2021/07/11 02:22:42;;;;;;;6.57;5.87;;;19.20;99.90;;;;;;5058898;28;20653;-48
2021/07/11 02:25:10;;;;;;;7.23;6.53;;;19.20;99.90;;;;;;5060307;28;20696;-49
2021/07/11 02:27:37;;;;;;;5.53;5.00;;;19.20;99.90;;;;;;5058724;28;20697;-49
2021/07/11 02:30:10;;;;;;;6.03;5.43;;;19.10;99.90;;;;;;5057444;28;20672;-48
2021/07/11 02:32:43;;;;;;;7.13;6.13;;;19.10;99.90;;;;;;5057900;28;20664;-49
2021/07/11 02:35:12;;;;;;;5.17;4.70;;;19.10;99.90;;;;;;5060741;28;20716;-48
2021/07/11 02:37:40;;;;;;;5.80;5.40;;;19.20;99.90;;;;;;5059678;28;20689;-49
2021/07/11 02:40:09;;;;;;;5.13;4.70;;;19.20;99.90;;;;;;5059992;28;20657;-49
2021/07/11 02:42:36;;;;;;;5.97;5.47;;;19.20;99.90;;;;;;5055076;28;20664;-50
2021/07/11 02:45:04;;;;;;;7.07;6.50;;;19.20;99.90;;;;;;5060102;28;20677;-50
2021/07/11 02:47:31;;;;;;;5.53;5.03;;;19.20;99.90;;;;;;5059890;28;20657;-49
2021/07/11 02:50:01;;;;;;;6.17;5.73;;;19.30;99.90;;;;;;5059308;28;21511;-49
2021/07/11 02:52:30;;;;;;;6.27;5.67;;;19.30;99.90;;;;;;5055839;28;21086;-49
2021/07/11 02:54:59;;;;;;;9.10;5.23;;;19.30;99.90;;;;;;5060068;28;20662;-49
2021/07/11 02:57:28;;;;;;;5.43;4.93;;;19.30;99.90;;;;;;5061509;28;21050;-48
2021/07/11 02:59:55;;;;;;;6.33;5.80;;;19.30;99.90;;;;;;5058742;28;20678;-49
2021/07/11 03:02:24;;;;;;;7.40;4.83;;;19.20;99.90;;;;;;5057253;28;20626;-48
2021/07/11 03:04:51;;;;;;;7.70;6.90;;;19.20;99.90;;;;;;5057938;28;20706;-48
2021/07/11 03:07:18;;;;;;;8.90;6.63;;;19.20;99.90;;;;;;5058687;28;21086;-48
2021/07/11 03:09:47;;;;;;;8.03;6.37;;;19.30;99.90;;;;;;5062919;28;21207;-49
2021/07/11 03:12:14;;;;;;;6.33;5.43;;;19.30;99.90;;;;;;5052458;28;20625;-49
2021/07/11 03:14:41;;;;;;;11.03;5.83;;;19.30;99.90;;;;;;5059946;28;20717;-50
2021/07/11 03:17:08;;;;;;;10.20;7.00;;;19.30;99.90;;;;;;5062608;28;20688;-50
2021/07/11 03:19:37;;;;;;;8.17;7.47;;;19.20;99.90;;;;;;5063267;28;20668;-50
2021/07/11 03:22:05;;;;;;;7.20;6.30;;;19.20;99.90;;;;;;5062317;28;20658;-49
2021/07/11 03:24:32;;;;;;;8.67;6.83;;;19.10;99.90;;;;;;5058152;28;20767;-50
2021/07/11 03:27:01;;;;;;;7.47;6.37;;;19.10;99.90;;;;;;5061637;28;20730;-50
2021/07/11 03:29:32;;;;;;;9.47;8.57;;;19.00;99.90;;;;;;5060329;28;20665;-50
2021/07/11 03:32:00;;;;;;;14.63;9.30;;;19.00;99.90;;;;;;5060734;28;20657;-50
2021/07/11 03:34:27;;;;;;;8.93;7.87;;;18.90;99.90;;;;;;5060064;28;20662;-49
2021/07/11 03:36:55;;;;;;;9.57;8.67;;;18.80;99.90;;;;;;5066932;28;20683;-48
2021/07/11 03:39:22;;;;;;;9.80;8.80;;;18.80;99.90;;;;;;5059953;28;20630;-50
2021/07/11 03:41:50;;;;;;;9.87;8.87;;;18.80;99.90;;;;;;5060030;28;21142;-49
2021/07/11 03:44:18;;;;;;;10.60;9.60;;;18.70;99.90;;;;;;5061198;28;20653;-49
2021/07/11 03:46:45;;;;;;;9.80;8.50;;;18.80;99.90;;;;;;5065655;28;20707;-49
2021/07/11 03:49:13;;;;;;;9.93;8.90;;;18.80;99.90;;;;;;5062522;28;20665;-49
2021/07/11 03:51:41;;;;;;;10.20;9.40;;;18.80;99.90;;;;;;5061696;28;20658;-49
2021/07/11 03:54:08;;;;;;;11.23;10.10;;;18.70;99.90;;;;;;5060671;28;20790;-49
2021/07/11 03:56:36;;;;;;;10.70;9.60;;;18.70;99.90;;;;;;5059969;28;20673;-48
2021/07/11 03:59:05;;;;;;;12.27;11.00;;;18.70;99.90;;;;;;5059032;28;20926;-49
2021/07/11 04:01:35;;;;;;;10.07;9.27;;;18.80;99.90;;;;;;5062861;28;20617;-50
2021/07/11 04:04:03;;;;;;;10.57;9.40;;;18.80;99.90;;;;;;5061971;28;21129;-48
2021/07/11 04:06:32;;;;;;;10.20;9.17;;;18.70;99.90;;;;;;5051560;28;20689;-49
2021/07/11 04:09:01;;;;;;;10.47;9.57;;;18.70;99.90;;;;;;5059488;28;21517;-49
2021/07/11 04:11:28;;;;;;;10.07;8.97;;;18.70;99.90;;;;;;5061923;28;20664;-50
2021/07/11 04:13:55;;;;;;;15.97;10.53;;;18.70;99.90;;;;;;5055512;28;20619;-49
2021/07/11 04:16:24;;;;;;;14.80;10.23;;;18.70;99.90;;;;;;5061704;28;21059;-50
2021/07/11 04:18:52;;;;;;;10.17;9.23;;;18.70;99.90;;;;;;5062036;28;20645;-50
2021/07/11 04:21:19;;;;;;;11.27;10.20;;;18.70;99.90;;;;;;5059661;28;20731;-49
2021/07/11 04:23:48;;;;;;;12.33;11.17;;;18.70;99.90;;;;;;5056924;28;20661;-50
2021/07/11 04:26:15;;;;;;;13.87;10.37;;;18.70;99.90;;;;;;5061067;28;20689;-50
2021/07/11 04:28:43;;;;;;;13.20;10.07;;;18.70;99.90;;;;;;5061717;28;21158;-50
2021/07/11 04:31:10;;;;;;;10.50;9.37;;;18.70;99.90;;;;;;5053685;28;21037;-50
2021/07/11 04:33:37;;;;;;;12.07;10.87;;;18.60;99.90;;;;;;5051454;28;20653;-50
2021/07/11 04:36:07;;;;;;;13.90;11.87;;;18.60;99.90;;;;;;5062224;28;21059;-50
2021/07/11 04:38:35;;;;;;;11.30;9.77;;;18.60;99.90;;;;;;5061000;28;20765;-50
2021/07/11 04:41:03;;;;;;;10.97;9.97;;;18.70;99.90;;;;;;5058590;28;21058;-49
2021/07/11 04:43:30;;;;;;;11.70;10.50;;;18.70;99.90;;;;;;5066955;28;20661;-50
2021/07/11 04:45:57;;;;;;;11.93;10.73;;;18.70;99.90;;;;;;5058399;28;20681;-50
2021/07/11 04:48:24;;;;;;;15.17;11.00;;;18.70;99.90;;;;;;5060109;28;21000;-50
2021/07/11 04:50:52;;;;;;;10.83;9.70;;;18.60;99.90;;;;;;5061966;28;20684;-49
2021/07/11 04:53:20;;;;;;;11.70;10.10;;;18.60;99.90;;;;;;5058910;28;20683;-50
2021/07/11 04:55:48;;;;;;;10.60;9.70;;;18.60;99.90;;;;;;5058196;28;20653;-50
2021/07/11 04:58:15;;;;;;;13.23;10.80;;;18.60;99.90;;;;;;5058528;28;21036;-50
2021/07/11 05:00:43;;;;;;;11.40;10.50;;;18.60;99.90;;;;;;5060979;28;20645;-50
2021/07/11 05:03:11;;;;;;;12.80;11.47;;;18.60;99.90;;;;;;5055509;28;20633;-49
2021/07/11 05:05:38;;;;;;;11.77;9.73;;;18.60;99.90;;;;;;5067675;28;20674;-50
2021/07/11 05:08:05;;;;;;;11.90;10.90;;;18.60;99.90;;;;;;5060947;28;20677;-50
2021/07/11 05:10:34;;;;;;;10.97;9.90;;;18.60;99.90;;;;;;5059340;28;20671;-50
2021/07/11 05:13:01;;;;;;;12.00;10.20;;;18.60;99.90;;;;;;5057497;28;20932;-50
2021/07/11 05:15:29;;;;;;;10.33;8.73;;;18.60;99.90;;;;;;5058879;28;20661;-50
2021/07/11 05:17:56;;;;;;;13.43;10.70;;;18.60;99.90;;;;;;5061479;28;21241;-50
2021/07/11 05:20:23;;;;;;;12.30;9.57;;;18.60;99.90;;;;;;5053911;28;20664;-50
2021/07/11 05:22:50;;;;;;;11.23;10.07;;;18.60;99.90;;;;;;5060043;28;21201;-50
2021/07/11 05:25:18;;;;;;;9.50;8.73;;;18.70;99.90;;;;;;5057853;28;20618;-49
2021/07/11 05:27:46;;;;;;;10.53;9.03;;;18.70;99.90;;;;;;5058164;28;20688;-49
2021/07/11 05:30:15;;;;;;;11.27;10.27;;;18.70;99.90;;;;;;5057499;28;20665;-49
2021/07/11 05:32:42;;;;;;;9.93;8.90;;;18.70;99.90;;;;;;5059576;28;20660;-49
2021/07/11 05:35:10;;;;;;;9.57;8.63;;;18.70;99.90;;;;;;5057880;28;21126;-49
2021/07/11 05:37:37;;;;;;;10.43;8.73;;;18.70;99.90;;;;;;5058726;28;20726;-49
2021/07/11 05:40:06;;;;;;;10.20;8.37;;;18.70;99.90;;;;;;5068140;28;20617;-49
2021/07/11 05:42:33;;;;;;;10.00;9.00;;;18.60;99.90;;;;;;5059638;28;20637;-49
2021/07/11 05:45:02;;;;;;;16.13;9.40;;;18.60;99.90;;;;;;5058012;28;20695;-49
2021/07/11 05:47:29;;;;;;;8.87;7.97;;;18.60;99.90;;;;;;5056624;28;20693;-49
2021/07/11 05:49:56;;;;;;;12.10;9.30;;;18.60;99.90;;;;;;5059913;28;20653;-51
2021/07/11 05:52:23;;;;;;;9.27;8.30;;;18.60;99.90;;;;;;5054434;28;20661;-49
2021/07/11 05:54:50;;;;;;;11.60;10.60;;;18.60;99.90;;;;;;5059452;28;20661;-49
2021/07/11 05:57:18;;;;;;;11.90;9.23;;;18.60;99.90;;;;;;5060706;28;20688;-49
2021/07/11 05:59:46;;;;;;;15.70;8.60;;;18.60;99.90;;;;;;5056437;28;20633;-50
2021/07/11 06:02:14;;;;;;;10.13;9.23;;;18.60;99.90;;;;;;5052453;28;20708;-50
2021/07/11 06:04:42;;;;;;;9.47;8.60;;;18.60;99.90;;;;;;5065391;28;20667;-50
2021/07/11 06:07:09;;;;;;;10.07;9.17;;;18.60;99.90;;;;;;5057113;28;21266;-50
2021/07/11 06:09:36;;;;;;;11.13;10.03;;;18.50;99.90;;;;;;5049509;28;20629;-49
2021/07/11 06:12:04;;;;;;;10.33;9.33;;;18.50;99.90;;;;;;5050576;28;20653;-49
2021/07/11 06:14:32;;;;;;;9.07;8.17;;;18.50;99.90;;;;;;5051791;28;20665;-49
2021/07/11 06:16:59;;;;;;;7.73;7.03;;;18.60;99.90;;;;;;5051731;28;20693;-47
2021/07/11 06:19:28;;;;;;;13.57;8.73;;;18.60;99.90;;;;;;5049692;28;20677;-48
2021/07/11 06:21:55;;;;;;;11.13;7.90;;;18.60;99.90;;;;;;5049594;28;20634;-48
2021/07/11 06:24:22;;;;;;;7.87;6.77;;;18.60;99.90;;;;;;5050147;28;21056;-50
2021/07/11 06:26:49;;;;;;;9.60;8.60;;;18.60;99.90;;;;;;5049469;28;20701;-50
2021/07/11 06:29:17;;;;;;;10.53;8.10;;;18.60;99.90;;;;;;5048675;28;20668;-51
2021/07/11 06:31:44;;;;;;;11.17;7.53;;;18.60;99.90;;;;;;5044268;28;20723;-50
2021/07/11 06:34:11;;;;;;;8.30;7.20;;;18.60;99.90;;;;;;5045967;28;20717;-48
2021/07/11 06:36:40;;;;;;;8.10;7.40;;;18.60;99.90;;;;;;5049940;28;21793;-49
2021/07/11 06:39:07;;;;;;;9.07;8.20;;;18.60;99.90;;;;;;5051687;28;20665;-48
2021/07/11 06:41:35;;;;;;;13.57;6.70;;;18.60;99.90;;;;;;5056287;28;21326;-49
2021/07/11 06:44:02;;;;;;;7.97;7.17;;;18.70;99.90;;;;;;5055611;28;20654;-49
2021/07/11 06:46:29;;;;;;;14.27;7.50;;;18.70;99.90;;;;;;5062966;28;20658;-50
2021/07/11 06:48:56;;;;;;;7.70;7.03;;;18.70;99.90;;;;;;5052582;28;21000;-49
2021/07/11 06:51:24;;;;;;;7.07;6.57;;;18.70;99.90;;;;;;5049239;28;20670;-50
2021/07/11 06:53:52;;;;;;;7.20;6.50;;;18.70;99.90;;;;;;5051708;28;21235;-50
2021/07/11 06:56:19;;;;;;;7.63;6.10;;;18.80;99.90;;;;;;5055597;28;20700;-50
2021/07/11 06:58:46;;;;;;;6.17;5.67;;;18.80;99.90;;;;;;5056881;28;20663;-50
2021/07/11 07:01:14;;;;;;;8.23;5.03;;;18.70;99.90;;;;;;5052071;28;20657;-50
2021/07/11 07:03:41;;;;;;;7.60;5.57;;;18.80;99.90;;;;;;5060375;28;20658;-50
2021/07/11 07:06:08;;;;;;;7.17;6.43;;;18.80;99.90;;;;;;5062264;28;20716;-50
2021/07/11 07:08:35;;;;;;;7.03;5.87;;;18.80;99.90;;;;;;5059264;28;20693;-50
2021/07/11 07:11:04;;;;;;;6.03;4.73;;;18.80;99.90;;;;;;5052598;28;21147;-51
2021/07/11 07:13:31;;;;;;;6.07;5.47;;;18.90;99.90;;;;;;5052247;28;20683;-50
2021/07/11 07:15:58;;;;;;;6.70;6.10;;;18.80;99.90;;;;;;5052083;28;20662;-50
2021/07/11 07:18:26;;;;;;;6.30;5.30;;;18.80;99.90;;;;;;5052510;28;20646;-49
2021/07/11 07:20:53;;;;;;;6.07;5.57;;;18.80;99.90;;;;;;5052243;28;20661;-50
2021/07/11 07:23:20;;;;;;;6.50;5.70;;;18.80;99.90;;;;;;5051829;28;21075;-51
2021/07/11 07:25:47;;;;;;;7.60;5.60;;;18.90;99.90;;;;;;5052127;28;20657;-49
2021/07/11 07:28:16;;;;;;;5.73;5.23;;;18.90;99.90;;;;;;5051692;28;20697;-50
2021/07/11 07:30:43;;;;;;;7.73;6.20;;;18.90;99.90;;;;;;5051666;28;20622;-47
2021/07/11 07:33:11;;;;;;;6.23;5.63;;;18.90;99.90;;;;;;5052485;28;21006;-48
2021/07/11 07:35:38;;;;;;;6.33;5.10;;;19.00;99.90;;;;;;5053005;28;20629;-46
2021/07/11 07:38:06;;;;;;;8.77;5.57;;;19.00;99.90;;;;;;5052205;28;20684;-50
2021/07/11 07:40:34;;;;;;;6.13;5.53;;;18.90;99.90;;;;;;5052039;28;20637;-48
2021/07/11 07:43:01;;;;;;;12.33;5.83;;;18.90;99.90;;;;;;5051975;28;20654;-49
2021/07/11 07:45:30;;;;;;;6.27;5.67;;;18.90;99.90;;;;;;5051601;28;20680;-49
2021/07/11 07:47:57;;;;;;;9.20;5.80;;;18.90;99.90;;;;;;5052004;28;20737;-49
2021/07/11 07:50:25;;;;;;;10.87;5.00;;;18.90;99.90;;;;;;5051458;28;20658;-49
2021/07/11 07:52:52;;;;;;;7.33;4.63;;;18.90;99.90;;;;;;5051679;28;21031;-48
2021/07/11 07:55:19;;;;;;;4.20;3.77;;;18.90;99.90;;;;;;5050847;28;20656;-49
2021/07/11 07:57:46;;;;;;;4.43;4.13;;;18.90;99.90;;;;;;5051493;28;21067;-50
2021/07/11 08:00:15;;;;;;;9.63;5.30;;;18.80;99.90;;;;;;5051446;28;21235;-48
2021/07/11 08:02:44;;;;;;;5.27;4.70;;;18.80;99.90;;;;;;5051896;28;20642;-49
2021/07/11 08:05:11;;;;;;;6.80;5.40;;;18.70;99.90;;;;;;5051577;28;20684;-50
2021/07/11 08:07:39;;;;;;;6.03;5.40;;;18.70;99.90;;;;;;5051177;28;20763;-49
2021/07/11 08:10:07;;;;;;;10.07;5.20;;;18.80;99.90;;;;;;5051160;28;20660;-51
2021/07/11 08:12:34;;;;;;;4.43;4.10;;;18.80;99.90;;;;;;5051144;28;20637;-50
2021/07/11 08:15:01;;;;;;;4.20;3.87;;;18.80;99.90;;;;;;5051653;28;20754;-49
2021/07/11 08:17:29;;;;;;;5.97;3.90;;;18.80;99.90;;;;;;5051089;28;20720;-50
2021/07/11 08:19:57;;;;;;;8.00;5.17;;;18.80;99.90;;;;;;5050745;28;20665;-51
2021/07/11 08:22:24;;;;;;;5.47;4.97;;;18.80;99.90;;;;;;5051759;28;20668;-53
2021/07/11 08:24:52;;;;;;;5.30;4.47;;;18.80;99.90;;;;;;5051775;28;20642;-51
2021/07/11 08:27:19;;;;;;;10.07;5.27;;;18.90;99.90;;;;;;5050893;28;20700;-53
2021/07/11 08:29:50;;;;;;;4.50;4.10;;;19.10;99.90;;;;;;5051607;28;20633;-51
2021/07/11 08:32:18;;;;;;;6.83;4.27;;;19.30;99.90;;;;;;5051460;28;20653;-53
2021/07/11 08:34:45;;;;;;;4.80;4.17;;;19.60;99.90;;;;;;5051334;28;20627;-53
2021/07/11 08:37:14;;;;;;;4.83;3.80;;;19.70;99.90;;;;;;5051156;28;20689;-52
2021/07/11 08:39:41;;;;;;;4.20;3.80;;;19.90;99.90;;;;;;5051318;28;20964;-55
2021/07/11 08:42:08;;;;;;;5.60;3.53;;;20.00;99.90;;;;;;5054958;28;20639;-57
2021/07/11 08:44:36;;;;;;;5.27;4.77;;;20.00;99.90;;;;;;5052575;28;20621;-57
2021/07/11 08:47:03;;;;;;;4.37;3.97;;;20.20;99.80;;;;;;5051181;28;20661;-54
2021/07/11 08:49:30;;;;;;;4.07;3.30;;;20.30;99.10;;;;;;5051558;28;20665;-52
2021/07/11 08:51:58;;;;;;;4.03;3.67;;;20.30;98.90;;;;;;5050940;28;20626;-52
2021/07/11 08:54:27;;;;;;;5.00;3.97;;;20.30;99.10;;;;;;5050780;28;20630;-52
2021/07/11 08:56:57;;;;;;;5.27;4.60;;;20.30;99.00;;;;;;5050515;28;20662;-53
2021/07/11 08:59:26;;;;;;;5.47;3.67;;;20.30;99.10;;;;;;5050883;28;20626;-53
2021/07/11 09:01:53;;;;;;;4.40;4.00;;;20.10;99.40;;;;;;5050307;28;21024;-52
2021/07/11 09:04:21;;;;;;;4.90;3.40;;;20.00;99.70;;;;;;5056061;28;20705;-52
2021/07/11 09:06:49;;;;;;;4.83;4.50;;;20.10;99.90;;;;;;5061292;28;20653;-53
2021/07/11 09:09:23;;;;;;;5.03;3.80;;;20.20;99.60;;;;;;5059307;28;20712;-53
2021/07/11 09:11:53;;;;;;;3.80;3.50;;;20.30;99.30;;;;;;5059004;28;20618;-52
2021/07/11 09:14:22;;;;;;;3.33;3.00;;;20.30;99.00;;;;;;5061014;28;20687;-52
2021/07/11 09:16:50;;;;;;;3.13;2.87;;;20.40;98.70;;;;;;5061734;28;20656;-52
2021/07/11 09:19:24;;;;;;;7.53;4.63;;;20.50;98.60;;;;;;5059871;28;20768;-52
2021/07/11 09:21:56;;;;;;;4.20;3.90;;;20.50;98.30;;;;;;5056266;28;20660;-53
2021/07/11 09:24:24;;;;;;;4.83;3.70;;;20.50;98.40;;;;;;5053380;28;20696;-54
2021/07/11 09:26:54;;;;;;;3.87;3.57;;;20.40;98.30;;;;;;5061284;28;20722;-53
2021/07/11 09:29:28;;;;;;;4.00;3.70;;;20.40;98.50;;;;;;5054477;28;20646;-52
2021/07/11 09:31:56;;;;;;;4.13;3.60;;;20.40;98.60;;;;;;5045392;28;20668;-51
2021/07/11 09:34:23;;;;;;;8.17;3.80;;;20.40;99.10;;;;;;5050803;28;20711;-50
2021/07/11 09:37:07;;;;;;;5.30;3.80;;;20.50;98.70;;;;;;5055463;28;20650;-52
2021/07/11 09:39:35;;;;;;;4.30;4.00;;;20.50;98.50;;;;;;5050732;28;20625;-53
2021/07/11 09:42:05;;;;;;;7.23;4.33;;;20.50;98.30;;;;;;5056456;28;21021;-54
2021/07/11 09:44:40;;;;;;;4.57;4.27;;;20.30;98.40;;;;;;5063733;28;20625;-53
2021/07/11 09:47:19;;;;;;;4.27;3.97;;;20.10;98.70;;;;;;5045187;28;20661;-52
2021/07/11 09:50:06;;;;;;;6.00;4.10;;;20.00;99.00;;;;;;5056365;28;20653;-53
2021/07/11 09:52:34;;;;;;;5.37;4.20;;;19.80;99.30;;;;;;5064267;28;20694;-52
2021/07/11 09:55:04;;;;;;;4.87;3.93;;;19.70;99.50;;;;;;5059909;28;20633;-54
2021/07/11 09:57:34;;;;;;;4.40;3.93;;;19.70;99.70;;;;;;5057943;28;20731;-54
2021/07/11 10:00:07;;;;;;;4.00;3.70;;;19.70;99.90;;;;;;5054625;28;21191;-53
2021/07/11 10:02:34;;;;;;;4.60;4.20;;;19.70;99.70;;;;;;5055983;28;20990;-52
2021/07/11 10:05:02;;;;;;;5.33;4.10;;;19.60;99.40;;;;;;5048373;28;20676;-53
2021/07/11 10:07:29;;;;;;;4.77;4.40;;;19.60;99.30;;;;;;5049062;28;20653;-53
2021/07/11 10:09:56;;;;;;;4.80;4.40;;;19.50;99.60;;;;;;5049184;28;20658;-54
2021/07/11 10:12:24;;;;;;;5.57;4.33;;;19.60;99.80;;;;;;5049487;28;20680;-54
2021/07/11 10:14:52;;;;;;;5.13;4.73;;;19.50;99.40;;;;;;5049698;28;20671;-53
2021/07/11 10:17:19;;;;;;;4.73;4.33;;;19.50;99.70;;;;;;5050098;28;21242;-54
2021/07/11 10:19:48;;;;;;;5.40;5.00;;;19.60;99.90;;;;;;5052644;28;20675;-54
2021/07/11 10:22:16;;;;;;;4.63;3.97;;;19.60;99.10;;;;;;5053715;28;20671;-53
2021/07/11 10:24:46;;;;;;;4.10;3.80;;;19.70;98.60;;;;;;5054612;28;20618;-50
2021/07/11 10:27:20;;;;;;;4.60;4.20;;;19.70;98.30;;;;;;5062280;28;20684;-54
2021/07/11 10:29:49;;;;;;;4.67;4.27;;;19.80;97.80;;;;;;5055551;28;20715;-53
2021/07/11 10:32:28;;;;;;;5.03;4.53;;;19.90;97.40;;;;;;5058484;28;21239;-51
2021/07/11 10:35:06;;;;;;;4.00;3.70;;;19.90;97.40;;;;;;5056077;28;20633;-55
2021/07/11 10:37:41;;;;;;;4.53;4.03;;;20.00;97.40;;;;;;5062178;28;20661;-53
2021/07/11 10:40:10;;;;;;;9.87;5.33;;;20.10;97.20;;;;;;5053019;28;20956;-54
2021/07/11 10:42:37;;;;;;;3.93;3.63;;;20.10;97.00;;;;;;5056016;28;20671;-56
2021/07/11 10:45:06;;;;;;;3.70;3.33;;;20.20;97.40;;;;;;5054767;28;20634;-55
2021/07/11 10:47:35;;;;;;;4.10;3.80;;;20.30;97.20;;;;;;5055948;28;20653;-54
2021/07/11 10:50:02;;;;;;;4.23;3.80;;;20.30;96.70;;;;;;5061665;28;20650;-52
2021/07/11 10:52:29;;;;;;;4.60;4.30;;;20.30;96.80;;;;;;5065991;28;20625;-51
2021/07/11 10:54:57;;;;;;;4.13;3.83;;;20.30;97.10;;;;;;5063603;28;20708;-51
2021/07/11 10:57:29;;;;;;;4.10;3.70;;;20.30;97.00;;;;;;5059522;28;20635;-52
2021/07/11 10:59:56;;;;;;;4.30;3.90;;;20.30;97.10;;;;;;5051533;28;20680;-54
2021/07/11 11:02:24;;;;;;;4.20;3.80;;;20.20;97.20;;;;;;5040304;28;25198;-52
2021/07/11 11:05:03;;;;;;;4.00;3.70;;;20.20;97.00;;;;;;5053978;28;20638;-52
2021/07/11 11:07:39;;;;;;;5.53;5.03;;;20.30;97.00;;;;;;5051997;28;20738;-54
2021/07/11 11:10:17;;;;;;;4.60;4.30;;;20.20;97.00;;;;;;5051438;28;20710;-53
2021/07/11 11:12:44;;;;;;;5.33;4.93;;;20.20;97.00;;;;;;5052429;28;20233;-55
2021/07/11 11:15:15;;;;;;;8.50;5.90;;;20.20;97.10;;;;;;5052355;28;20960;-50
2021/07/11 11:17:42;;;;;;;5.20;4.80;;;20.10;97.00;;;;;;5051063;28;20754;-50
2021/07/11 11:20:14;;;;;;;5.40;4.97;;;20.10;97.00;;;;;;5049636;28;21044;-51
2021/07/11 11:22:51;;;;;;;5.00;4.50;;;20.10;97.00;;;;;;5051750;28;20700;-51
2021/07/11 11:25:19;;;;;;;6.77;6.17;;;20.00;97.10;;;;;;5051993;28;20698;-51
2021/07/11 11:27:46;;;;;;;5.90;5.40;;;20.00;97.40;;;;;;5051492;28;20649;-51
2021/07/11 11:30:16;;;;;;;5.80;5.30;;;20.00;97.20;;;;;;5048269;28;20662;-54
2021/07/11 11:32:43;;;;;;;6.40;5.90;;;20.10;97.30;;;;;;5048937;28;20247;-53
2021/07/11 11:35:16;;;;;;;6.17;5.57;;;20.10;97.50;;;;;;5051718;28;20777;-53
2021/07/11 11:37:46;;;;;;;6.13;5.63;;;20.20;97.30;;;;;;5051659;28;20700;-52
2021/07/11 11:40:14;;;;;;;8.20;6.03;;;20.30;97.00;;;;;;5050072;28;20687;-52
2021/07/11 11:42:45;;;;;;;6.93;6.27;;;20.40;96.70;;;;;;5050571;28;20691;-53
2021/07/11 11:45:13;;;;;;;7.80;7.20;;;20.40;96.80;;;;;;5049060;28;20618;-54
2021/07/11 11:47:40;;;;;;;6.30;5.70;;;20.50;96.70;;;;;;5050127;28;20662;-54
2021/07/11 11:50:16;;;;;;;5.67;5.23;;;20.60;96.80;;;;;;5049986;28;20708;-54
2021/07/11 11:52:44;;;;;;;7.00;5.27;;;20.70;95.60;;;;;;5050973;28;21216;-54
2021/07/11 11:55:13;;;;;;;4.83;4.43;;;20.80;96.00;;;;;;5050638;28;20630;-52
2021/07/11 11:57:41;;;;;;;4.93;4.50;;;20.80;95.70;;;;;;5051872;28;20650;-53
2021/07/11 12:00:15;;;;;;;4.60;4.13;;;20.90;95.60;;;;;;5050919;28;21462;-57
2021/07/11 12:02:42;;;;;;;4.67;4.37;;;21.00;95.40;;;;;;5052316;28;20634;-53
2021/07/11 12:05:11;;;;;;;12.30;4.17;;;21.10;95.30;;;;;;5052155;28;20630;-54
2021/07/11 12:07:40;;;;;;;3.87;3.50;;;21.30;95.00;;;;;;5051962;28;21064;-55
2021/07/11 12:10:08;;;;;;;4.30;4.00;;;21.50;94.80;;;;;;5051790;28;20658;-52
2021/07/11 12:12:35;;;;;;;3.55;3.25;;;21.60;94.20;;;;;;5056722;28;21015;-55
2021/07/11 12:15:02;;;;;;;4.20;3.90;;;21.70;93.90;;;;;;5067829;28;20294;-53
2021/07/11 12:17:33;;;;;;;5.50;3.97;;;21.80;93.90;;;;;;5067792;28;21163;-54
2021/07/11 12:20:00;;;;;;;3.40;3.10;;;21.90;93.70;;;;;;5050119;28;20908;-52
2021/07/11 12:22:29;;;;;;;3.60;3.30;;;22.00;93.10;;;;;;5050194;28;20633;-53
2021/07/11 12:25:09;;;;;;;3.03;2.83;;;22.10;92.90;;;;;;5051351;28;20658;-54
2021/07/11 12:27:37;;;;;;;3.33;3.13;;;22.20;92.60;;;;;;5050195;28;20662;-55
2021/07/11 12:30:09;;;;;;;3.40;3.20;;;22.30;92.00;;;;;;5056868;28;20664;-56
2021/07/11 12:32:43;;;;;;;3.47;3.27;;;22.30;92.20;;;;;;5070660;28;20766;-55
2021/07/11 12:35:11;;;;;;;2.73;2.53;;;22.30;92.10;;;;;;5070479;28;20636;-53
2021/07/11 12:37:51;;;;;;;3.40;3.10;;;22.40;92.00;;;;;;5062769;28;20666;-55
2021/07/11 12:40:20;;;;;;;2.40;2.20;;;22.50;91.30;;;;;;5037779;28;20687;-54
2021/07/11 12:42:47;;;;;;;3.00;2.80;;;22.40;91.00;;;;;;5051212;28;20621;-55
2021/07/11 12:45:19;;;;;;;3.15;2.95;;;22.50;91.10;;;;;;5061866;28;20683;-54
2021/07/11 12:47:50;;;;;;;3.60;2.80;;;22.50;90.90;;;;;;5050618;28;21215;-55
2021/07/11 12:50:18;;;;;;;3.10;2.70;;;22.50;91.30;;;;;;5048581;28;20661;-55